sensor_id;sensor_type;location;lat;lon;timestamp;P1;durP1;ratioP1;P2;durP2;ratioP2
11398;SDS011;5755;48.116;11.608;2023-04-25T04:01:12;2.90;;;1.85;;
11398;SDS011;5755;48.116;11.608;2023-04-25T04:03:39;3.15;;;1.60;;
11398;SDS011;5755;48.116;11.608;2023-04-25T04:06:06;2.67;;;1.77;;
11398;SDS011;5755;48.116;11.608;2023-04-25T04:08:34;2.47;;;1.70;;
11398;SDS011;5755;48.116;11.608;2023-04-25T04:11:01;2.85;;;1.70;;
11398;SDS011;5755;48.116;11.608;2023-04-25T04:32:17;4.88;;;1.48;;
11398;SDS011;5755;48.116;11.608;2023-04-25T04:34:44;3.13;;;1.85;;
11398;SDS011;5755;48.116;11.608;2023-04-25T04:39:52;1.88;;;1.55;;
11398;SDS011;5755;48.116;11.608;2023-04-25T04:42:19;3.20;;;1.70;;
11398;SDS011;5755;48.116;11.608;2023-04-25T04:44:46;3.55;;;1.80;;
11398;SDS011;5755;48.116;11.608;2023-04-25T04:47:13;3.80;;;1.70;;
11398;SDS011;5755;48.116;11.608;2023-04-25T04:49:41;2.00;;;1.80;;
11398;SDS011;5755;48.116;11.608;2023-04-25T04:52:09;1.77;;;1.60;;
11398;SDS011;5755;48.116;11.608;2023-04-25T04:54:36;1.75;;;1.48;;
11398;SDS011;5755;48.116;11.608;2023-04-25T04:57:03;2.90;;;1.70;;
11398;SDS011;5755;48.116;11.608;2023-04-25T04:59:30;1.73;;;1.50;;
11398;SDS011;5755;48.116;11.608;2023-04-25T05:01:57;2.63;;;1.58;;
11398;SDS011;5755;48.116;11.608;2023-04-25T05:04:24;2.40;;;1.80;;
11398;SDS011;5755;48.116;11.608;2023-04-25T05:06:53;2.05;;;1.70;;
11398;SDS011;5755;48.116;11.608;2023-04-25T05:09:20;4.00;;;1.77;;
11398;SDS011;5755;48.116;11.608;2023-04-25T05:11:50;2.10;;;1.58;;
11398;SDS011;5755;48.116;11.608;2023-04-25T05:14:17;2.15;;;1.95;;
11398;SDS011;5755;48.116;11.608;2023-04-25T05:16:44;2.50;;;2.10;;
11398;SDS011;5755;48.116;11.608;2023-04-25T05:19:25;1.95;;;1.60;;
11398;SDS011;5755;48.116;11.608;2023-04-25T05:21:53;3.88;;;2.03;;
11398;SDS011;5755;48.116;11.608;2023-04-25T05:24:28;2.42;;;2.08;;
11398;SDS011;5755;48.116;11.608;2023-04-25T05:26:58;2.92;;;2.08;;
11398;SDS011;5755;48.116;11.608;2023-04-25T05:29:25;5.22;;;2.10;;
11398;SDS011;5755;48.116;11.608;2023-04-25T05:32:01;3.20;;;2.10;;
11398;SDS011;5755;48.116;11.608;2023-04-25T05:34:51;4.43;;;1.92;;
11398;SDS011;5755;48.116;11.608;2023-04-25T05:37:33;2.45;;;2.10;;
11398;SDS011;5755;48.116;11.608;2023-04-25T05:40:14;3.45;;;2.10;;
11398;SDS011;5755;48.116;11.608;2023-04-25T05:42:53;3.90;;;2.00;;
11398;SDS011;5755;48.116;11.608;2023-04-25T05:52:12;4.38;;;2.20;;
11398;SDS011;5755;48.116;11.608;2023-04-25T05:55:00;3.80;;;2.10;;
11398;SDS011;5755;48.116;11.608;2023-04-25T05:57:41;3.90;;;2.00;;
11398;SDS011;5755;48.116;11.608;2023-04-25T06:00:11;8.00;;;2.53;;
11398;SDS011;5755;48.116;11.608;2023-04-25T06:02:46;7.25;;;2.53;;
11398;SDS011;5755;48.116;11.608;2023-04-25T06:14:47;3.47;;;1.70;;
11398;SDS011;5755;48.116;11.608;2023-04-25T06:17:28;2.05;;;1.77;;
11398;SDS011;5755;48.116;11.608;2023-04-25T06:19:55;3.25;;;2.00;;
11398;SDS011;5755;48.116;11.608;2023-04-25T06:22:24;2.33;;;1.97;;
11398;SDS011;5755;48.116;11.608;2023-04-25T06:24:51;3.55;;;2.00;;
11398;SDS011;5755;48.116;11.608;2023-04-25T06:27:34;6.65;;;2.15;;
11398;SDS011;5755;48.116;11.608;2023-04-25T06:43:47;3.37;;;2.67;;
11398;SDS011;5755;48.116;11.608;2023-04-25T06:46:52;6.87;;;3.17;;
11398;SDS011;5755;48.116;11.608;2023-04-25T06:49:32;6.05;;;2.47;;
11398;SDS011;5755;48.116;11.608;2023-04-25T06:52:30;3.97;;;2.30;;
11398;SDS011;5755;48.116;11.608;2023-04-25T11:59:02;2.78;;;1.80;;
11398;SDS011;5755;48.116;11.608;2023-04-25T12:01:47;1.80;;;1.70;;
11398;SDS011;5755;48.116;11.608;2023-04-25T12:04:30;3.20;;;1.63;;
11398;SDS011;5755;48.116;11.608;2023-04-25T12:07:15;3.20;;;2.22;;
11398;SDS011;5755;48.116;11.608;2023-04-25T12:09:44;1.73;;;1.50;;
11398;SDS011;5755;48.116;11.608;2023-04-25T12:12:32;1.63;;;1.45;;
11398;SDS011;5755;48.116;11.608;2023-04-25T12:15:16;1.48;;;1.38;;
11398;SDS011;5755;48.116;11.608;2023-04-25T12:18:22;1.70;;;1.60;;
11398;SDS011;5755;48.116;11.608;2023-04-25T12:20:52;2.15;;;1.27;;
11398;SDS011;5755;48.116;11.608;2023-04-25T12:23:24;2.10;;;1.40;;
11398;SDS011;5755;48.116;11.608;2023-04-25T12:25:52;3.47;;;1.50;;
11398;SDS011;5755;48.116;11.608;2023-04-25T12:28:21;1.63;;;1.50;;
11398;SDS011;5755;48.116;11.608;2023-04-25T12:30:55;1.50;;;1.10;;
11398;SDS011;5755;48.116;11.608;2023-04-25T12:33:22;1.67;;;1.25;;
11398;SDS011;5755;48.116;11.608;2023-04-25T12:35:50;1.70;;;1.30;;
11398;SDS011;5755;48.116;11.608;2023-04-25T12:38:21;1.35;;;1.23;;
11398;SDS011;5755;48.116;11.608;2023-04-25T12:40:49;2.13;;;1.15;;
11398;SDS011;5755;48.116;11.608;2023-04-25T12:43:16;1.40;;;1.30;;
11398;SDS011;5755;48.116;11.608;2023-04-25T12:45:43;1.20;;;1.10;;
11398;SDS011;5755;48.116;11.608;2023-04-25T12:48:12;1.95;;;1.30;;
11398;SDS011;5755;48.116;11.608;2023-04-25T12:50:39;2.15;;;1.30;;
11398;SDS011;5755;48.116;11.608;2023-04-25T12:53:06;1.85;;;1.45;;
11398;SDS011;5755;48.116;11.608;2023-04-25T12:55:33;1.80;;;1.30;;
11398;SDS011;5755;48.116;11.608;2023-04-25T12:58:00;2.83;;;1.38;;
11398;SDS011;5755;48.116;11.608;2023-04-25T13:00:28;1.58;;;1.40;;
11398;SDS011;5755;48.116;11.608;2023-04-25T13:02:55;2.10;;;1.40;;
11398;SDS011;5755;48.116;11.608;2023-04-25T13:05:23;1.70;;;1.58;;
11398;SDS011;5755;48.116;11.608;2023-04-25T13:07:50;1.58;;;1.35;;
11398;SDS011;5755;48.116;11.608;2023-04-25T13:10:18;1.60;;;1.50;;
11398;SDS011;5755;48.116;11.608;2023-04-25T13:12:45;1.48;;;1.38;;
11398;SDS011;5755;48.116;11.608;2023-04-25T13:15:12;1.98;;;1.42;;
11398;SDS011;5755;48.116;11.608;2023-04-25T13:17:43;1.30;;;1.20;;
11398;SDS011;5755;48.116;11.608;2023-04-25T13:20:10;1.15;;;1.08;;
11398;SDS011;5755;48.116;11.608;2023-04-25T13:22:40;1.63;;;1.17;;
11398;SDS011;5755;48.116;11.608;2023-04-25T13:25:08;1.15;;;1.00;;
11398;SDS011;5755;48.116;11.608;2023-04-25T13:27:35;1.27;;;1.10;;
11398;SDS011;5755;48.116;11.608;2023-04-25T13:30:05;1.45;;;1.15;;
11398;SDS011;5755;48.116;11.608;2023-04-25T13:32:33;1.20;;;1.10;;
11398;SDS011;5755;48.116;11.608;2023-04-25T13:35:02;1.55;;;1.40;;
11398;SDS011;5755;48.116;11.608;2023-04-25T13:37:29;1.00;;;1.00;;
11398;SDS011;5755;48.116;11.608;2023-04-25T13:40:00;1.17;;;1.08;;
11398;SDS011;5755;48.116;11.608;2023-04-25T13:42:29;1.30;;;1.20;;
11398;SDS011;5755;48.116;11.608;2023-04-25T13:44:56;1.38;;;1.27;;
11398;SDS011;5755;48.116;11.608;2023-04-25T13:47:23;1.42;;;1.20;;
11398;SDS011;5755;48.116;11.608;2023-04-25T13:49:53;1.40;;;1.30;;
11398;SDS011;5755;48.116;11.608;2023-04-25T13:52:20;2.28;;;1.20;;
11398;SDS011;5755;48.116;11.608;2023-04-25T13:54:49;1.38;;;1.27;;
11398;SDS011;5755;48.116;11.608;2023-04-25T13:57:17;2.22;;;1.20;;
11398;SDS011;5755;48.116;11.608;2023-04-25T13:59:45;1.75;;;1.30;;
11398;SDS011;5755;48.116;11.608;2023-04-25T14:02:12;1.35;;;1.25;;
11398;SDS011;5755;48.116;11.608;2023-04-25T14:04:39;1.90;;;1.20;;
11398;SDS011;5755;48.116;11.608;2023-04-25T14:07:06;2.35;;;1.20;;
11398;SDS011;5755;48.116;11.608;2023-04-25T14:09:33;1.23;;;1.13;;
11398;SDS011;5755;48.116;11.608;2023-04-25T14:12:00;1.20;;;1.05;;
11398;SDS011;5755;48.116;11.608;2023-04-25T14:14:29;1.25;;;1.15;;
11398;SDS011;5755;48.116;11.608;2023-04-25T14:16:56;2.38;;;1.20;;
11398;SDS011;5755;48.116;11.608;2023-04-25T14:19:23;1.48;;;1.38;;
11398;SDS011;5755;48.116;11.608;2023-04-25T14:21:50;1.27;;;1.17;;
11398;SDS011;5755;48.116;11.608;2023-04-25T14:24:18;1.30;;;1.20;;
11398;SDS011;5755;48.116;11.608;2023-04-25T14:26:45;1.60;;;1.30;;
11398;SDS011;5755;48.116;11.608;2023-04-25T14:29:31;1.10;;;1.00;;
11398;SDS011;5755;48.116;11.608;2023-04-25T14:31:58;1.42;;;1.20;;
11398;SDS011;5755;48.116;11.608;2023-04-25T14:34:25;1.88;;;1.20;;
11398;SDS011;5755;48.116;11.608;2023-04-25T14:36:52;1.13;;;1.02;;
11398;SDS011;5755;48.116;11.608;2023-04-25T14:39:19;0.90;;;0.90;;
11398;SDS011;5755;48.116;11.608;2023-04-25T14:41:47;1.15;;;1.08;;
11398;SDS011;5755;48.116;11.608;2023-04-25T14:44:13;1.10;;;0.90;;
11398;SDS011;5755;48.116;11.608;2023-04-25T14:46:42;1.30;;;0.90;;
11398;SDS011;5755;48.116;11.608;2023-04-25T14:49:23;1.17;;;1.00;;
11398;SDS011;5755;48.116;11.608;2023-04-25T14:51:50;1.05;;;1.05;;
11398;SDS011;5755;48.116;11.608;2023-04-25T14:54:16;3.35;;;0.85;;
11398;SDS011;5755;48.116;11.608;2023-04-25T14:56:44;1.25;;;1.10;;
11398;SDS011;5755;48.116;11.608;2023-04-25T15:05:59;3.50;;;1.23;;
11398;SDS011;5755;48.116;11.608;2023-04-25T15:09:01;1.55;;;1.20;;
11398;SDS011;5755;48.116;11.608;2023-04-25T15:14:13;1.40;;;1.30;;
11398;SDS011;5755;48.116;11.608;2023-04-25T15:20:27;1.25;;;0.98;;
11398;SDS011;5755;48.116;11.608;2023-04-25T15:29:40;1.98;;;1.20;;
11398;SDS011;5755;48.116;11.608;2023-04-25T15:40:46;1.17;;;1.08;;
11398;SDS011;5755;48.116;11.608;2023-04-25T15:43:27;1.17;;;1.08;;
11398;SDS011;5755;48.116;11.608;2023-04-25T15:45:54;1.85;;;1.75;;
11398;SDS011;5755;48.116;11.608;2023-04-25T15:48:21;1.30;;;1.20;;
11398;SDS011;5755;48.116;11.608;2023-04-25T15:50:48;2.13;;;1.73;;
11398;SDS011;5755;48.116;11.608;2023-04-25T15:53:15;1.80;;;1.70;;
11398;SDS011;5755;48.116;11.608;2023-04-25T15:55:42;1.85;;;1.75;;
11398;SDS011;5755;48.116;11.608;2023-04-25T15:58:11;1.80;;;1.63;;
11398;SDS011;5755;48.116;11.608;2023-04-25T16:00:37;2.53;;;1.73;;
11398;SDS011;5755;48.116;11.608;2023-04-25T16:03:05;1.77;;;1.60;;
11398;SDS011;5755;48.116;11.608;2023-04-25T16:05:56;1.50;;;1.40;;
11398;SDS011;5755;48.116;11.608;2023-04-25T16:08:37;1.83;;;1.60;;
11398;SDS011;5755;48.116;11.608;2023-04-25T16:11:04;2.20;;;2.00;;
11398;SDS011;5755;48.116;11.608;2023-04-25T16:13:32;3.33;;;1.80;;
11398;SDS011;5755;48.116;11.608;2023-04-25T16:16:04;1.50;;;1.40;;
11398;SDS011;5755;48.116;11.608;2023-04-25T16:18:32;2.30;;;1.30;;
11398;SDS011;5755;48.116;11.608;2023-04-25T16:20:59;1.90;;;1.70;;
11398;SDS011;5755;48.116;11.608;2023-04-25T16:23:26;1.90;;;1.80;;
11398;SDS011;5755;48.116;11.608;2023-04-25T16:25:53;1.98;;;1.63;;
11398;SDS011;5755;48.116;11.608;2023-04-25T16:28:20;2.15;;;1.95;;
11398;SDS011;5755;48.116;11.608;2023-04-25T16:30:48;2.10;;;1.90;;
11398;SDS011;5755;48.116;11.608;2023-04-25T16:33:15;2.28;;;1.90;;
11398;SDS011;5755;48.116;11.608;2023-04-25T16:35:42;2.22;;;2.03;;
11398;SDS011;5755;48.116;11.608;2023-04-25T16:38:09;2.85;;;1.98;;
11398;SDS011;5755;48.116;11.608;2023-04-25T16:40:35;2.40;;;2.20;;
11398;SDS011;5755;48.116;11.608;2023-04-25T16:43:02;2.22;;;2.03;;
11398;SDS011;5755;48.116;11.608;2023-04-25T16:45:29;2.92;;;2.63;;
11398;SDS011;5755;48.116;11.608;2023-04-25T16:47:57;3.15;;;2.40;;
11398;SDS011;5755;48.116;11.608;2023-04-25T16:50:24;3.95;;;2.65;;
11398;SDS011;5755;48.116;11.608;2023-04-25T16:52:51;2.60;;;2.40;;
11398;SDS011;5755;48.116;11.608;2023-04-25T16:55:19;3.15;;;2.30;;
11398;SDS011;5755;48.116;11.608;2023-04-25T16:57:46;5.25;;;2.50;;
11398;SDS011;5755;48.116;11.608;2023-04-25T17:00:13;2.67;;;2.47;;
11398;SDS011;5755;48.116;11.608;2023-04-25T17:02:41;2.72;;;2.45;;
11398;SDS011;5755;48.116;11.608;2023-04-25T17:05:09;3.70;;;2.40;;
11398;SDS011;5755;48.116;11.608;2023-04-25T17:08:02;2.97;;;2.28;;
11398;SDS011;5755;48.116;11.608;2023-04-25T17:10:29;3.00;;;2.70;;
11398;SDS011;5755;48.116;11.608;2023-04-25T17:12:56;3.35;;;2.70;;
11398;SDS011;5755;48.116;11.608;2023-04-25T17:15:23;2.88;;;2.63;;
11398;SDS011;5755;48.116;11.608;2023-04-25T17:17:50;2.92;;;2.72;;
11398;SDS011;5755;48.116;11.608;2023-04-25T17:20:17;3.08;;;2.78;;
11398;SDS011;5755;48.116;11.608;2023-04-25T17:22:44;3.08;;;2.50;;
11398;SDS011;5755;48.116;11.608;2023-04-25T17:25:12;3.00;;;2.70;;
11398;SDS011;5755;48.116;11.608;2023-04-25T17:27:39;3.63;;;2.63;;
11398;SDS011;5755;48.116;11.608;2023-04-25T17:30:07;2.50;;;2.30;;
11398;SDS011;5755;48.116;11.608;2023-04-25T17:32:34;4.10;;;3.58;;
11398;SDS011;5755;48.116;11.608;2023-04-25T17:35:01;2.90;;;2.60;;
11398;SDS011;5755;48.116;11.608;2023-04-25T17:37:28;3.83;;;2.65;;
11398;SDS011;5755;48.116;11.608;2023-04-25T17:39:55;4.93;;;3.20;;
11398;SDS011;5755;48.116;11.608;2023-04-25T17:42:24;3.67;;;3.25;;
11398;SDS011;5755;48.116;11.608;2023-04-25T17:44:52;3.35;;;2.85;;
11398;SDS011;5755;48.116;11.608;2023-04-25T17:47:19;2.95;;;2.47;;
11398;SDS011;5755;48.116;11.608;2023-04-25T17:49:46;2.83;;;2.50;;
11398;SDS011;5755;48.116;11.608;2023-04-25T17:52:14;3.17;;;2.88;;
11398;SDS011;5755;48.116;11.608;2023-04-25T17:54:41;3.25;;;2.72;;
11398;SDS011;5755;48.116;11.608;2023-04-25T17:57:08;2.80;;;2.60;;
11398;SDS011;5755;48.116;11.608;2023-04-25T17:59:37;3.55;;;3.00;;
11398;SDS011;5755;48.116;11.608;2023-04-25T18:02:04;3.42;;;2.80;;
11398;SDS011;5755;48.116;11.608;2023-04-25T18:04:31;3.20;;;2.78;;
11398;SDS011;5755;48.116;11.608;2023-04-25T18:06:59;3.47;;;3.17;;
11398;SDS011;5755;48.116;11.608;2023-04-25T18:09:26;4.47;;;3.20;;
11398;SDS011;5755;48.116;11.608;2023-04-25T18:11:54;4.10;;;3.20;;
11398;SDS011;5755;48.116;11.608;2023-04-25T18:14:21;4.32;;;3.13;;
11398;SDS011;5755;48.116;11.608;2023-04-25T19:13:35;5.10;;;3.58;;
11398;SDS011;5755;48.116;11.608;2023-04-25T19:34:11;4.82;;;3.58;;
11398;SDS011;5755;48.116;11.608;2023-04-25T19:49:31;5.45;;;4.68;;
11398;SDS011;5755;48.116;11.608;2023-04-25T20:07:32;4.95;;;3.85;;
11398;SDS011;5755;48.116;11.608;2023-04-25T20:10:00;4.85;;;3.60;;
11398;SDS011;5755;48.116;11.608;2023-04-25T20:22:52;5.25;;;4.10;;
11398;SDS011;5755;48.116;11.608;2023-04-25T20:25:19;4.60;;;3.75;;
11398;SDS011;5755;48.116;11.608;2023-04-25T20:27:47;4.75;;;4.10;;
11398;SDS011;5755;48.116;11.608;2023-04-25T20:30:14;4.80;;;4.18;;
11398;SDS011;5755;48.116;11.608;2023-04-25T20:43:03;5.75;;;4.20;;
11398;SDS011;5755;48.116;11.608;2023-04-25T21:01:04;4.43;;;4.03;;
11398;SDS011;5755;48.116;11.608;2023-04-25T21:06:07;4.22;;;3.83;;
11398;SDS011;5755;48.116;11.608;2023-04-25T21:39:37;3.90;;;3.50;;
11398;SDS011;5755;48.116;11.608;2023-04-25T21:42:06;5.28;;;4.00;;
11398;SDS011;5755;48.116;11.608;2023-04-25T21:44:34;5.15;;;3.53;;
11398;SDS011;5755;48.116;11.608;2023-04-25T21:57:24;5.80;;;4.55;;
11398;SDS011;5755;48.116;11.608;2023-04-25T22:10:43;5.40;;;4.28;;
11398;SDS011;5755;48.116;11.608;2023-04-25T23:33:28;7.90;;;6.15;;
